Time;durP1;ratioP1;P1;durP2;ratioP2;P2;SDS_P1;SDS_P2;PMS_P1;PMS_P2;Temp;Humidity;BMP_temperature;BMP_pressure;BME280_temperature;BME280_humidity;BME280_pressure;Samples;Min_cycle;Max_cycle;Signal;HPM_P1;HPM_P2
2022/08/23 00:01:19;;;;;;;4.55;3.03;;;18.10;99.90;;;;;;5050012;28;20047;-46
2022/08/23 00:03:45;;;;;;;4.32;3.00;;;18.10;99.90;;;;;;5049511;28;20067;-46
2022/08/23 00:06:11;;;;;;;;;;;18.10;99.90;;;;;;5068967;28;20072;-46
2022/08/23 00:08:38;;;;;;;3.70;2.70;;;18.00;99.90;;;;;;5069341;28;19939;-46
2022/08/23 00:11:05;;;;;;;5.45;2.20;;;18.00;99.90;;;;;;5070331;28;20064;-45
2022/08/23 00:13:31;;;;;;;4.85;2.80;;;18.00;99.90;;;;;;5068980;28;20040;-46
2022/08/23 00:15:57;;;;;;;3.88;2.85;;;18.00;99.90;;;;;;5069493;28;20410;-46
2022/08/23 00:18:23;;;;;;;3.78;2.92;;;17.90;99.90;;;;;;5068979;28;20080;-46
2022/08/23 00:20:49;;;;;;;;;;;17.90;99.90;;;;;;5066679;28;20033;-45
2022/08/23 00:23:15;;;;;;;3.28;2.80;;;17.80;99.90;;;;;;5069233;28;19916;-46
2022/08/23 00:25:40;;;;;;;7.57;3.13;;;17.80;99.90;;;;;;5069994;28;20115;-46
2022/08/23 00:28:07;;;;;;;7.60;4.63;;;17.80;99.90;;;;;;5069582;28;20037;-47
2022/08/23 00:30:33;;;;;;;8.88;4.22;;;17.90;99.90;;;;;;5069465;28;20049;-46
2022/08/23 00:32:58;;;;;;;4.68;2.95;;;17.80;99.90;;;;;;5068994;28;20402;-46
2022/08/23 00:35:24;;;;;;;3.35;2.40;;;17.90;99.90;;;;;;5069850;28;20470;-47
2022/08/23 00:37:49;;;;;;;3.65;2.90;;;17.90;99.90;;;;;;5070719;28;20505;-46
2022/08/23 00:40:17;;;;;;;2.90;2.38;;;17.90;99.90;;;;;;5073321;28;20051;-47
2022/08/23 00:48:36;;;;;;;4.03;2.00;;;17.80;99.90;;;;;;5072988;28;20128;-46
2022/08/23 00:51:24;;;;;;;3.42;1.73;;;17.80;99.90;;;;;;5072959;28;20033;-46
2022/08/23 00:53:54;;;;;;;2.95;1.85;;;17.70;99.90;;;;;;5057595;28;20028;-47
2022/08/23 00:56:22;;;;;;;1.90;1.75;;;17.60;99.90;;;;;;5072828;28;20083;-46
2022/08/23 00:58:48;;;;;;;3.63;2.08;;;17.50;99.90;;;;;;5072748;28;20051;-46
2022/08/23 01:01:15;;;;;;;2.47;1.95;;;17.50;99.90;;;;;;5072447;28;20393;-46
2022/08/23 01:03:43;;;;;;;4.10;2.38;;;17.50;99.90;;;;;;5072007;28;20051;-47
2022/08/23 01:06:22;;;;;;;6.88;2.85;;;17.50;99.90;;;;;;5071970;28;20577;-46
2022/08/23 01:08:51;;;;;;;5.32;2.90;;;17.40;99.90;;;;;;5065678;28;20052;-45
2022/08/23 01:11:31;;;;;;;3.10;1.85;;;17.30;99.90;;;;;;5072891;28;20154;-47
2022/08/23 01:14:07;;;;;;;2.35;1.95;;;17.20;99.90;;;;;;5057012;28;20024;-46
2022/08/23 01:16:57;;;;;;;3.97;2.88;;;17.20;99.90;;;;;;5071780;28;20047;-46
2022/08/23 01:19:57;;;;;;;3.05;2.45;;;17.10;99.90;;;;;;5073057;28;20058;-46
2022/08/23 01:22:40;;;;;;;8.38;3.58;;;17.10;99.90;;;;;;5056409;28;20144;-45
2022/08/23 01:25:09;;;;;;;3.15;2.88;;;17.00;99.90;;;;;;5072092;28;20432;-48
2022/08/23 01:27:36;;;;;;;3.38;2.17;;;17.00;99.90;;;;;;5072499;28;20090;-46
2022/08/23 01:30:06;;;;;;;4.97;2.20;;;17.00;99.90;;;;;;5072315;28;20036;-47
2022/08/23 01:32:34;;;;;;;3.70;2.00;;;17.00;99.90;;;;;;5072163;28;20033;-45
2022/08/23 01:35:00;;;;;;;4.38;1.08;;;16.90;99.90;;;;;;5072031;28;20037;-46
2022/08/23 01:37:26;;;;;;;4.43;1.65;;;16.90;99.90;;;;;;5072027;28;20035;-46
2022/08/23 01:39:51;;;;;;;4.32;1.77;;;16.90;99.90;;;;;;5072092;28;20060;-46
2022/08/23 01:42:17;;;;;;;5.55;3.65;;;16.80;99.90;;;;;;5071768;28;20063;-45
2022/08/23 01:44:43;;;;;;;7.60;3.90;;;16.90;99.90;;;;;;5071702;28;20054;-46
2022/08/23 01:47:08;;;;;;;5.55;3.67;;;16.90;99.90;;;;;;5071794;28;20036;-47
2022/08/23 01:49:34;;;;;;;4.75;3.47;;;16.90;99.90;;;;;;5071166;28;20048;-46
2022/08/23 01:51:59;;;;;;;3.00;2.70;;;16.90;99.90;;;;;;5071534;28;20455;-46
2022/08/23 01:54:25;;;;;;;5.97;4.18;;;16.90;99.90;;;;;;5071401;28;20051;-45
2022/08/23 01:56:50;;;;;;;3.35;3.05;;;17.00;99.90;;;;;;5072113;28;20043;-45
2022/08/23 01:59:16;;;;;;;4.75;2.25;;;16.90;99.90;;;;;;5071651;28;20072;-46
2022/08/23 02:01:42;;;;;;;7.47;2.67;;;17.00;99.90;;;;;;5071473;28;20036;-46
2022/08/23 02:04:07;;;;;;;7.90;4.70;;;17.00;99.90;;;;;;5071046;28;20115;-47
2022/08/23 02:06:33;;;;;;;6.60;4.90;;;17.00;99.90;;;;;;5064355;28;20044;-45
2022/08/23 02:09:02;;;;;;;8.88;6.38;;;17.00;99.90;;;;;;5051779;28;20056;-46
2022/08/23 02:11:34;;;;;;;8.05;4.53;;;17.00;99.90;;;;;;5064006;28;20570;-46
2022/08/23 02:14:03;;;;;;;6.68;4.75;;;17.00;99.90;;;;;;5071804;28;20108;-46
2022/08/23 02:16:33;;;;;;;5.93;4.47;;;17.00;99.90;;;;;;5071476;28;20036;-46
2022/08/23 02:19:00;;;;;;;12.15;4.88;;;17.00;99.90;;;;;;5071349;28;20413;-46
2022/08/23 02:21:25;;;;;;;5.38;4.90;;;17.00;99.90;;;;;;5071488;28;20489;-46
2022/08/23 02:23:51;;;;;;;5.05;4.63;;;16.90;99.90;;;;;;5055722;28;20036;-46
2022/08/23 02:26:18;;;;;;;7.85;5.55;;;16.80;99.90;;;;;;5051087;28;20044;-45
2022/08/23 02:28:43;;;;;;;9.10;5.32;;;16.80;99.90;;;;;;5051169;28;20439;-45
2022/08/23 02:31:10;;;;;;;4.10;3.70;;;16.70;99.90;;;;;;5051196;28;20098;-46
2022/08/23 02:33:36;;;;;;;3.53;2.70;;;16.70;99.90;;;;;;5050066;28;20060;-46
2022/08/23 02:36:01;;;;;;;2.03;1.42;;;16.80;99.90;;;;;;5050249;28;20536;-47
2022/08/23 02:38:27;;;;;;;2.58;2.47;;;16.80;99.90;;;;;;5061312;28;20044;-45
2022/08/23 02:40:53;;;;;;;3.75;3.45;;;16.70;99.90;;;;;;5071083;28;20448;-46
2022/08/23 02:43:18;;;;;;;4.25;3.95;;;16.70;99.90;;;;;;5070114;28;20028;-46
2022/08/23 02:45:44;;;;;;;4.45;4.05;;;16.70;99.90;;;;;;5063244;28;20092;-45
2022/08/23 02:48:10;;;;;;;2.28;2.17;;;16.60;99.90;;;;;;5068240;28;20028;-47
2022/08/23 02:50:36;;;;;;;2.20;2.05;;;16.60;99.90;;;;;;5070650;28;20052;-46
2022/08/23 02:53:01;;;;;;;;;;;16.50;99.90;;;;;;5070815;28;20043;-46
2022/08/23 02:55:27;;;;;;;9.52;4.07;;;16.50;99.90;;;;;;5070446;28;20014;-46
2022/08/23 02:57:53;;;;;;;2.67;2.42;;;16.50;99.90;;;;;;5070364;28;20041;-46
2022/08/23 03:00:20;;;;;;;2.22;1.60;;;16.40;99.90;;;;;;5069563;28;20101;-46
2022/08/23 03:02:46;;;;;;;2.25;2.13;;;16.40;99.90;;;;;;5069765;28;20086;-46
2022/08/23 03:05:13;;;;;;;2.25;1.42;;;16.30;99.90;;;;;;5070012;28;20040;-46
2022/08/23 03:07:40;;;;;;;4.75;1.35;;;16.30;99.90;;;;;;5070445;28;20040;-46
2022/08/23 03:10:08;;;;;;;0.93;0.43;;;16.30;99.90;;;;;;5070456;28;20398;-46
2022/08/23 03:12:34;;;;;;;1.70;1.20;;;16.20;99.90;;;;;;5070448;28;20033;-45
2022/08/23 03:14:59;;;;;;;4.85;2.92;;;16.20;99.90;;;;;;5070565;28;20123;-46
2022/08/23 03:17:25;;;;;;;2.80;2.70;;;16.10;99.90;;;;;;5069930;28;20107;-47
2022/08/23 03:19:51;;;;;;;2.90;1.85;;;16.10;99.90;;;;;;5070294;28;20040;-46
2022/08/23 03:22:17;;;;;;;3.35;2.38;;;16.00;99.90;;;;;;5070483;28;20379;-45
2022/08/23 03:24:43;;;;;;;2.45;2.25;;;16.00;99.90;;;;;;5070051;28;20063;-47
2022/08/23 03:27:09;;;;;;;2.85;2.08;;;15.90;99.90;;;;;;5069557;28;20532;-47
2022/08/23 03:29:36;;;;;;;3.03;2.05;;;15.80;99.90;;;;;;5069960;28;20521;-47
2022/08/23 03:32:03;;;;;;;;;;;15.80;99.90;;;;;;5069793;28;20058;-46
2022/08/23 03:34:29;;;;;;;2.22;2.13;;;15.70;99.90;;;;;;5070052;28;20009;-46
2022/08/23 03:36:55;;;;;;;3.25;3.05;;;15.70;99.90;;;;;;5069689;28;20033;-46
2022/08/23 03:39:21;;;;;;;4.07;3.38;;;15.70;99.90;;;;;;5070249;28;20042;-46
2022/08/23 03:41:46;;;;;;;4.35;2.88;;;15.70;99.90;;;;;;5069970;28;20050;-47
2022/08/23 03:44:12;;;;;;;2.05;1.95;;;15.60;99.90;;;;;;5069180;28;20040;-46
2022/08/23 03:46:38;;;;;;;4.97;4.13;;;15.70;99.90;;;;;;5069294;28;20047;-46
2022/08/23 03:49:03;;;;;;;4.68;4.30;;;15.70;99.90;;;;;;5069736;28;20037;-46
2022/08/23 03:51:31;;;;;;;5.78;5.18;;;15.80;99.90;;;;;;5070457;28;20047;-46
2022/08/23 03:53:57;;;;;;;6.85;5.95;;;15.80;99.90;;;;;;5069409;28;20075;-47
2022/08/23 03:56:29;;;;;;;7.72;6.00;;;15.90;99.90;;;;;;5069768;28;20072;-47
2022/08/23 03:58:56;;;;;;;9.50;3.03;;;15.90;99.90;;;;;;5066514;28;20223;-46
2022/08/23 04:01:22;;;;;;;3.10;2.80;;;15.90;99.90;;;;;;5069535;28;20044;-46
2022/08/23 04:03:48;;;;;;;4.15;3.85;;;15.90;99.90;;;;;;5069227;28;20037;-45
2022/08/23 04:06:14;;;;;;;4.40;3.75;;;15.90;99.90;;;;;;5069975;28;20040;-45
2022/08/23 04:08:40;;;;;;;4.40;4.00;;;15.90;99.90;;;;;;5069236;28;20071;-46
2022/08/23 04:11:06;;;;;;;2.78;2.55;;;15.90;99.90;;;;;;5070047;28;20437;-46
2022/08/23 04:13:33;;;;;;;6.07;5.07;;;15.80;99.90;;;;;;5063604;28;20048;-46
2022/08/23 04:16:01;;;;;;;;;;;15.80;99.90;;;;;;5053840;28;20114;-47
2022/08/23 04:18:29;;;;;;;5.53;4.32;;;15.80;99.90;;;;;;5053843;28;20298;-47
2022/08/23 04:20:55;;;;;;;9.07;8.05;;;15.70;99.90;;;;;;5054154;28;20457;-46
2022/08/23 04:23:20;;;;;;;11.93;8.57;;;15.80;99.90;;;;;;5053527;28;20430;-47
2022/08/23 04:25:46;;;;;;;11.32;6.60;;;15.80;99.90;;;;;;5063584;28;20214;-48
2022/08/23 04:28:11;;;;;;;7.55;6.88;;;15.80;99.90;;;;;;5073413;28;20037;-46
2022/08/23 04:30:37;;;;;;;11.80;10.43;;;15.80;99.90;;;;;;5073415;28;20047;-45
2022/08/23 04:33:03;;;;;;;13.57;8.80;;;15.80;99.90;;;;;;5073496;28;20036;-46
2022/08/23 04:35:29;;;;;;;12.43;10.50;;;15.80;99.90;;;;;;5073479;28;20093;-47
2022/08/23 04:37:54;;;;;;;12.73;10.80;;;15.90;99.90;;;;;;5073041;28;20123;-46
2022/08/23 04:43:07;;;;;;;12.48;9.85;;;15.90;99.90;;;;;;5072225;28;20078;-46
2022/08/23 04:45:33;;;;;;;12.95;10.60;;;15.90;99.90;;;;;;5073148;28;20041;-47
2022/08/23 04:47:59;;;;;;;12.80;9.90;;;15.90;99.90;;;;;;5072662;28;20163;-46
2022/08/23 04:50:24;;;;;;;10.32;9.43;;;15.90;99.90;;;;;;5072776;28;20037;-45
2022/08/23 04:52:50;;;;;;;11.50;10.13;;;15.90;99.90;;;;;;5072849;28;20393;-46
2022/08/23 04:55:15;;;;;;;11.23;9.80;;;15.90;99.90;;;;;;5072665;28;20041;-46
2022/08/23 04:57:41;;;;;;;11.15;9.57;;;15.90;99.90;;;;;;5072718;28;20452;-46
2022/08/23 05:00:11;;;;;;;9.50;8.77;;;15.90;99.90;;;;;;5072855;28;20036;-45
2022/08/23 05:02:37;;;;;;;10.77;9.82;;;15.80;99.90;;;;;;5072847;28;20072;-46
2022/08/23 05:05:03;;;;;;;9.95;9.05;;;15.90;99.90;;;;;;5072691;28;20099;-46
2022/08/23 05:07:30;;;;;;;9.65;8.68;;;15.90;99.90;;;;;;5072540;28;20039;-46
2022/08/23 05:09:56;;;;;;;7.72;7.18;;;15.90;99.90;;;;;;5072648;28;20055;-46
2022/08/23 05:12:22;;;;;;;12.90;9.30;;;15.90;99.90;;;;;;5072875;28;20485;-46
2022/08/23 05:14:47;;;;;;;9.55;8.85;;;15.90;99.90;;;;;;5072907;28;20028;-47
2022/08/23 05:17:13;;;;;;;8.48;7.78;;;15.90;99.90;;;;;;5072453;28;20037;-47
2022/08/23 05:19:38;;;;;;;9.23;8.32;;;16.00;99.90;;;;;;5071509;28;20040;-47
2022/08/23 05:22:04;;;;;;;11.15;8.65;;;16.00;99.90;;;;;;5072682;28;20101;-45
2022/08/23 05:24:30;;;;;;;11.07;9.10;;;16.00;99.90;;;;;;5070841;28;20037;-46
2022/08/23 05:26:55;;;;;;;12.43;10.75;;;16.00;99.90;;;;;;5072988;28;20048;-46
2022/08/23 05:29:21;;;;;;;14.15;11.70;;;16.10;99.90;;;;;;5071791;28;20489;-46
2022/08/23 05:31:46;;;;;;;15.38;12.68;;;16.10;99.90;;;;;;5072305;28;20048;-46
2022/08/23 05:34:12;;;;;;;14.10;12.80;;;16.10;99.90;;;;;;5071844;28;20028;-46
2022/08/23 05:36:38;;;;;;;15.15;13.27;;;16.10;99.90;;;;;;5072355;28;20043;-46
2022/08/23 05:39:04;;;;;;;16.25;13.25;;;16.20;99.90;;;;;;5071292;28;20084;-46
2022/08/23 05:41:30;;;;;;;18.23;11.95;;;16.20;99.90;;;;;;5072225;28;20490;-46
2022/08/23 05:43:56;;;;;;;15.18;13.65;;;16.30;99.90;;;;;;5071073;28;20052;-46
2022/08/23 05:46:22;;;;;;;15.07;13.20;;;16.40;99.90;;;;;;5071231;28;20044;-46
2022/08/23 05:48:50;;;;;;;13.82;12.45;;;16.50;99.90;;;;;;5071660;28;20040;-46
2022/08/23 05:51:19;;;;;;;14.85;13.52;;;16.60;99.90;;;;;;5071769;28;20045;-46
2022/08/23 05:53:46;;;;;;;13.80;12.25;;;16.70;99.90;;;;;;5071065;28;20040;-47
2022/08/23 05:56:20;;;;;;;22.20;13.20;;;16.80;99.90;;;;;;5070476;28;20218;-46
2022/08/23 05:58:47;;;;;;;17.40;12.88;;;16.90;99.90;;;;;;5062373;28;20044;-46
2022/08/23 06:01:13;;;;;;;16.23;13.98;;;17.00;99.90;;;;;;5066291;28;20083;-46
2022/08/23 06:03:40;;;;;;;15.30;13.82;;;17.10;99.90;;;;;;5050330;28;20052;-46
2022/08/23 06:06:06;;;;;;;16.42;14.68;;;17.20;99.90;;;;;;5062206;28;20047;-46
2022/08/23 06:08:33;;;;;;;15.07;13.77;;;17.40;99.90;;;;;;5071792;28;20409;-47
2022/08/23 06:11:05;;;;;;;17.88;14.35;;;17.50;99.90;;;;;;5071649;28;20044;-47
2022/08/23 06:13:30;;;;;;;14.45;12.90;;;17.60;99.90;;;;;;5071404;28;20401;-47
2022/08/23 06:15:57;;;;;;;15.85;14.20;;;17.80;99.90;;;;;;5071396;28;20043;-46
2022/08/23 06:18:24;;;;;;;16.60;13.85;;;17.90;99.90;;;;;;5060076;28;20040;-46
2022/08/23 06:21:05;;;;;;;18.40;13.80;;;18.00;99.90;;;;;;5051010;28;20052;-46
2022/08/23 06:23:31;;;;;;;15.82;14.25;;;18.10;99.90;;;;;;5051562;28;20043;-47
2022/08/23 06:25:57;;;;;;;;;;;18.30;99.90;;;;;;5052232;28;20044;-47
2022/08/23 06:28:23;;;;;;;16.67;12.95;;;18.40;99.90;;;;;;5050003;28;19916;-50
2022/08/23 06:30:52;;;;;;;14.68;13.13;;;18.50;99.90;;;;;;5068431;28;20033;-47
2022/08/23 06:33:17;;;;;;;14.90;9.48;;;18.70;99.90;;;;;;5070607;28;20551;-46
2022/08/23 06:35:43;;;;;;;13.55;9.82;;;18.80;99.90;;;;;;5070382;28;20291;-46
2022/08/23 06:38:09;;;;;;;14.18;11.05;;;18.90;99.90;;;;;;5069082;28;20040;-46
2022/08/23 06:40:35;;;;;;;11.93;10.32;;;18.90;99.90;;;;;;5071068;28;20070;-48
2022/08/23 06:43:00;;;;;;;10.45;9.52;;;19.10;99.90;;;;;;5070108;28;20413;-47
2022/08/23 06:45:26;;;;;;;11.85;8.68;;;19.30;99.90;;;;;;5066948;28;20039;-46
2022/08/23 06:47:52;;;;;;;;;;;19.40;99.90;;;;;;5082516;28;20515;-46
2022/08/23 06:50:18;;;;;;;9.63;7.35;;;19.50;99.90;;;;;;5084023;28;20297;-47
2022/08/23 06:52:49;;;;;;;11.63;9.48;;;19.50;99.90;;;;;;5081007;28;20031;-47
2022/08/23 06:55:15;;;;;;;9.15;8.30;;;19.60;99.90;;;;;;5079921;28;20028;-46
2022/08/23 06:57:41;;;;;;;15.18;9.45;;;19.70;99.90;;;;;;5081769;28;20528;-46
2022/08/23 07:00:07;;;;;;;;;;;19.80;99.90;;;;;;5088745;28;20032;-47
2022/08/23 07:02:32;;;;;;;8.80;7.85;;;19.80;99.90;;;;;;5079862;28;19916;-46
2022/08/23 07:04:58;;;;;;;10.98;7.45;;;19.90;99.90;;;;;;5079509;28;20044;-47
2022/08/23 07:07:24;;;;;;;;;;;20.00;99.90;;;;;;5081466;28;20431;-46
2022/08/23 07:09:50;;;;;;;12.18;8.88;;;20.10;99.90;;;;;;5088289;28;19978;-47
2022/08/23 07:12:16;;;;;;;10.32;7.75;;;20.30;99.90;;;;;;5085471;28;20032;-47
2022/08/23 07:14:43;;;;;;;10.55;7.80;;;20.40;99.90;;;;;;5072351;28;20032;-48
2022/08/23 07:17:08;;;;;;;8.85;8.05;;;20.50;99.90;;;;;;5082556;28;20036;-46
2022/08/23 07:19:34;;;;;;;13.35;8.25;;;20.60;99.90;;;;;;5081119;28;20041;-47
2022/08/23 07:22:02;;;;;;;11.30;8.85;;;20.80;99.90;;;;;;5088809;28;20036;-47
2022/08/23 07:24:28;;;;;;;9.48;8.00;;;20.90;99.90;;;;;;5086074;28;20059;-47
2022/08/23 07:26:54;;;;;;;14.63;8.18;;;21.00;99.90;;;;;;5088575;28;20564;-48
2022/08/23 07:29:21;;;;;;;8.18;7.47;;;21.10;99.90;;;;;;5088352;28;20127;-46
2022/08/23 07:31:52;;;;;;;11.70;7.50;;;21.10;99.90;;;;;;5078791;28;20031;-47
2022/08/23 07:34:19;;;;;;;11.55;7.00;;;21.20;99.90;;;;;;5074382;28;20919;-48
2022/08/23 07:36:46;;;;;;;11.07;7.38;;;21.30;99.80;;;;;;5077787;28;20037;-46
2022/08/23 07:39:13;;;;;;;11.57;8.70;;;21.40;99.60;;;;;;5074147;28;20040;-48
2022/08/23 07:41:39;;;;;;;9.02;6.82;;;21.50;99.70;;;;;;5075515;28;20740;-48
2022/08/23 07:44:05;;;;;;;;;;;21.60;99.80;;;;;;5075235;28;20036;-48
2022/08/23 07:46:31;;;;;;;12.13;7.90;;;21.70;99.80;;;;;;5077957;28;20003;-46
2022/08/23 07:49:01;;;;;;;;;;;21.70;99.60;;;;;;5076181;28;20044;-48
2022/08/23 07:51:29;;;;;;;27.98;8.20;;;21.80;99.00;;;;;;5076971;28;19916;-49
2022/08/23 07:53:54;;;;;;;9.05;6.18;;;22.00;99.10;;;;;;5079409;28;20644;-47
2022/08/23 07:56:20;;;;;;;;;;;22.00;98.70;;;;;;5078478;28;20036;-47
2022/08/23 07:58:46;;;;;;;9.43;7.10;;;22.10;98.50;;;;;;5077832;28;19966;-46
2022/08/23 08:01:16;;;;;;;;;;;22.20;98.50;;;;;;5075221;28;20060;-47
2022/08/23 08:03:43;;;;;;;9.05;6.05;;;22.30;98.20;;;;;;5077111;28;20446;-47
2022/08/23 08:06:11;;;;;;;8.90;5.25;;;22.40;98.30;;;;;;5085178;28;20067;-46
2022/08/23 08:08:39;;;;;;;7.93;5.40;;;22.50;97.90;;;;;;5084217;28;20043;-46
2022/08/23 08:11:06;;;;;;;7.22;6.07;;;22.60;97.90;;;;;;5086681;28;20039;-48
2022/08/23 08:13:34;;;;;;;7.32;5.60;;;22.70;97.50;;;;;;5087226;28;20074;-48
2022/08/23 08:16:00;;;;;;;9.25;6.35;;;22.80;97.20;;;;;;5083031;28;20067;-47
2022/08/23 08:18:25;;;;;;;;;;;22.80;97.00;;;;;;5088857;28;20063;-47
2022/08/23 08:20:51;;;;;;;6.68;5.68;;;22.90;96.60;;;;;;5088857;28;19992;-48
2022/08/23 08:23:16;;;;;;;;;;;23.00;96.90;;;;;;5088376;28;20402;-48
2022/08/23 08:25:42;;;;;;;7.10;5.97;;;23.10;96.30;;;;;;5087263;28;19965;-51
2022/08/23 08:28:08;;;;;;;6.50;4.95;;;23.20;96.30;;;;;;5088434;28;20493;-47
2022/08/23 08:30:33;;;;;;;12.55;5.65;;;23.30;96.30;;;;;;5087412;28;20036;-47
2022/08/23 08:32:59;;;;;;;9.73;5.60;;;23.30;96.00;;;;;;5088321;28;20047;-48
2022/08/23 08:35:25;;;;;;;6.40;5.05;;;23.30;96.00;;;;;;5087805;28;20028;-47
2022/08/23 08:37:50;;;;;;;8.65;5.00;;;23.40;96.30;;;;;;5088129;28;20401;-47
2022/08/23 08:40:23;;;;;;;7.97;5.15;;;23.50;96.20;;;;;;5081007;28;20047;-49
2022/08/23 08:43:07;;;;;;;7.50;5.30;;;23.60;95.80;;;;;;5088294;28;20470;-52
2022/08/23 08:45:52;;;;;;;9.63;4.82;;;23.70;95.20;;;;;;5086439;28;20040;-52
2022/08/23 08:48:22;;;;;;;8.18;5.47;;;23.80;95.30;;;;;;5088179;28;20043;-52
2022/08/23 08:50:56;;;;;;;8.75;5.85;;;23.90;95.30;;;;;;5087125;28;20133;-52
2022/08/23 08:53:30;;;;;;;9.55;4.90;;;24.10;95.20;;;;;;5087579;28;20040;-51
2022/08/23 08:56:14;;;;;;;8.57;5.78;;;24.10;94.90;;;;;;5088113;28;20059;-51
2022/08/23 08:58:50;;;;;;;9.32;4.30;;;24.30;94.40;;;;;;5088653;28;20073;-53
2022/08/23 09:01:17;;;;;;;7.78;4.75;;;24.40;93.90;;;;;;5090423;28;20040;-53
2022/08/23 09:03:43;;;;;;;11.27;4.00;;;24.40;94.00;;;;;;5091761;28;20068;-52
2022/08/23 09:06:29;;;;;;;9.40;4.68;;;24.60;93.90;;;;;;5087252;28;20060;-51
2022/08/23 09:09:07;;;;;;;7.22;4.38;;;24.70;93.60;;;;;;5091672;28;20032;-53
2022/08/23 09:11:49;;;;;;;8.43;4.13;;;24.90;93.50;;;;;;5088911;28;20082;-50
2022/08/23 09:14:41;;;;;;;4.00;3.70;;;24.90;93.20;;;;;;5091650;28;20035;-53
2022/08/23 09:17:25;;;;;;;8.52;4.53;;;25.00;92.90;;;;;;5091749;28;20028;-52
2022/08/23 09:19:54;;;;;;;6.50;4.22;;;25.10;92.50;;;;;;5089275;28;20039;-50
2022/08/23 09:22:46;;;;;;;6.40;3.63;;;25.20;92.50;;;;;;5091364;28;20391;-51
2022/08/23 09:25:13;;;;;;;5.68;3.45;;;25.30;92.40;;;;;;5081947;28;20379;-52
2022/08/23 09:27:42;;;;;;;6.15;2.90;;;25.30;92.50;;;;;;5090787;28;20501;-51
2022/08/23 09:30:09;;;;;;;7.55;4.05;;;25.40;92.20;;;;;;5090100;28;20050;-50
2022/08/23 09:32:42;;;;;;;10.13;4.05;;;25.50;92.00;;;;;;5088296;28;20238;-53
2022/08/23 09:35:19;;;;;;;6.05;3.05;;;25.60;91.40;;;;;;5079193;28;20047;-50
2022/08/23 09:38:01;;;;;;;5.93;3.38;;;25.70;90.50;;;;;;5082283;28;20032;-49
2022/08/23 09:40:37;;;;;;;8.45;2.72;;;25.70;90.40;;;;;;5080447;28;20076;-52
2022/08/23 09:43:09;;;;;;;4.32;1.85;;;25.80;90.20;;;;;;5082599;28;20068;-50
2022/08/23 09:45:37;;;;;;;7.47;2.35;;;25.90;90.30;;;;;;5080914;28;20110;-50
2022/08/23 09:48:04;;;;;;;7.07;2.72;;;25.90;90.40;;;;;;5083464;28;20035;-48
2022/08/23 09:50:38;;;;;;;3.60;2.67;;;26.10;90.30;;;;;;5081200;28;20040;-50
2022/08/23 09:53:14;;;;;;;8.23;2.60;;;26.10;89.60;;;;;;5081509;28;20318;-52
2022/08/23 09:55:42;;;;;;;;;;;26.20;89.30;;;;;;5082360;28;20180;-49
2022/08/23 09:58:35;;;;;;;7.22;2.95;;;26.30;88.00;;;;;;5069729;28;19951;-49
2022/08/23 10:01:10;;;;;;;6.78;3.13;;;26.40;86.40;;;;;;5068869;28;20124;-52
2022/08/23 10:03:36;;;;;;;5.35;3.30;;;26.50;86.70;;;;;;5067169;28;20044;-49
2022/08/23 10:06:02;;;;;;;6.45;3.85;;;26.50;87.00;;;;;;5069338;28;20044;-53
2022/08/23 10:08:48;;;;;;;6.82;2.92;;;26.60;86.80;;;;;;5071342;28;20113;-48
2022/08/23 10:11:22;;;;;;;7.05;2.17;;;26.60;86.10;;;;;;5067603;28;20048;-46
2022/08/23 10:13:49;;;;;;;3.65;1.92;;;26.70;83.70;;;;;;5051443;28;20109;-48
2022/08/23 10:16:40;;;;;;;150.50;8.32;;;26.80;84.10;;;;;;5061596;28;20305;-48
2022/08/23 10:19:17;;;;;;;5.95;1.67;;;26.90;81.50;;;;;;5071306;28;20421;-53
2022/08/23 10:21:56;;;;;;;3.35;1.58;;;26.90;82.90;;;;;;5071319;28;20075;-48
2022/08/23 10:24:33;;;;;;;4.70;1.40;;;27.00;80.80;;;;;;5070912;28;20036;-49
2022/08/23 10:30:15;;;;;;;3.05;1.75;;;27.10;81.90;;;;;;5051483;28;20049;-48
2022/08/23 10:33:13;;;;;;;4.97;1.50;;;27.20;79.90;;;;;;5051137;28;20044;-53
2022/08/23 10:35:45;;;;;;;4.75;2.30;;;27.20;77.50;;;;;;5054392;28;20422;-47
2022/08/23 10:38:32;;;;;;;6.95;2.25;;;27.30;79.10;;;;;;5063981;28;20077;-50
2022/08/23 10:41:37;;;;;;;4.65;1.85;;;27.30;79.00;;;;;;5066670;28;20502;-52
2022/08/23 10:44:11;;;;;;;2.75;2.03;;;27.40;78.90;;;;;;5050647;28;20076;-52
2022/08/23 10:46:55;;;;;;;5.53;2.05;;;27.50;78.30;;;;;;5061071;28;20037;-51
2022/08/23 10:49:22;;;;;;;4.72;1.52;;;27.50;77.80;;;;;;5050656;28;20067;-49
2022/08/23 10:51:49;;;;;;;5.18;1.90;;;27.60;78.40;;;;;;5062414;28;20038;-50
2022/08/23 10:54:44;;;;;;;5.63;2.10;;;27.60;77.10;;;;;;5070293;28;20082;-52
2022/08/23 10:57:16;;;;;;;10.30;1.80;;;27.60;76.70;;;;;;5070652;28;20097;-48
2022/08/23 10:59:46;;;;;;;2.75;1.00;;;27.60;76.00;;;;;;5069860;28;20040;-49
2022/08/23 11:02:54;;;;;;;4.00;1.70;;;27.70;75.50;;;;;;5070509;28;20040;-48
2022/08/23 11:05:24;;;;;;;5.75;1.45;;;27.70;74.90;;;;;;5060089;28;20131;-48
2022/08/23 11:07:55;;;;;;;4.47;1.50;;;27.80;74.60;;;;;;5070666;28;20498;-47
2022/08/23 11:10:46;;;;;;;6.15;1.27;;;27.80;73.60;;;;;;5069903;28;20409;-50
2022/08/23 11:13:12;;;;;;;6.93;1.05;;;27.90;72.00;;;;;;5068675;28;20036;-50
2022/08/23 11:15:54;;;;;;;1.35;0.60;;;27.90;73.00;;;;;;5070020;28;20037;-49
2022/08/23 11:18:28;;;;;;;5.63;1.27;;;28.00;71.40;;;;;;5069631;28;20087;-48
2022/08/23 11:20:56;;;;;;;4.63;1.25;;;28.00;71.90;;;;;;5083413;28;20124;-47
2022/08/23 11:23:37;;;;;;;2.88;1.10;;;28.10;72.10;;;;;;5070092;28;20170;-48
2022/08/23 11:26:05;;;;;;;5.32;1.45;;;28.20;72.20;;;;;;5053861;28;20037;-48
2022/08/23 11:28:41;;;;;;;8.25;1.58;;;28.20;71.40;;;;;;5065937;28;20060;-47
2022/08/23 11:31:07;;;;;;;2.50;1.15;;;28.20;70.40;;;;;;5049896;28;20499;-47
2022/08/23 11:33:41;;;;;;;5.95;1.30;;;28.30;72.20;;;;;;5049878;28;20070;-48
2022/08/23 11:36:07;;;;;;;5.22;1.27;;;28.40;72.10;;;;;;5050160;28;20479;-48
2022/08/23 11:38:47;;;;;;;8.93;0.93;;;28.50;71.30;;;;;;5069523;28;20032;-48
2022/08/23 11:41:23;;;;;;;2.83;1.38;;;28.50;68.70;;;;;;5066462;28;20044;-48
2022/08/23 11:44:12;;;;;;;5.40;1.10;;;28.50;69.90;;;;;;5069456;28;20486;-46
2022/08/23 11:46:53;;;;;;;2.97;1.13;;;28.50;68.70;;;;;;5050388;28;20124;-47
2022/08/23 11:49:27;;;;;;;6.05;1.38;;;28.50;68.90;;;;;;5050047;28;20063;-47
2022/08/23 11:52:12;;;;;;;4.05;1.10;;;28.40;67.60;;;;;;5051398;28;20482;-47
2022/08/23 11:54:43;;;;;;;5.50;1.23;;;28.50;68.90;;;;;;5060311;28;20036;-47
2022/08/23 11:57:36;;;;;;;4.78;1.20;;;28.50;67.70;;;;;;5070033;28;20071;-48
2022/08/23 12:00:11;;;;;;;5.70;1.38;;;28.50;68.10;;;;;;5069863;28;20048;-48
2022/08/23 12:02:36;;;;;;;3.25;0.98;;;28.60;68.00;;;;;;5065571;28;20559;-48
2022/08/23 12:05:20;;;;;;;3.63;0.75;;;28.70;68.50;;;;;;5069915;28;20250;-46
2022/08/23 12:07:51;;;;;;;2.83;0.90;;;28.80;67.30;;;;;;5061035;28;20069;-47
2022/08/23 12:10:44;;;;;;;2.55;0.98;;;28.80;66.90;;;;;;5049986;28;20041;-48
2022/08/23 12:13:18;;;;;;;4.63;0.82;;;28.90;67.00;;;;;;5067448;28;20123;-48
2022/08/23 12:16:09;;;;;;;6.40;1.25;;;29.00;67.00;;;;;;5069250;28;20410;-46
2022/08/23 12:18:51;;;;;;;3.80;1.00;;;29.10;67.50;;;;;;5052938;28;20032;-48
2022/08/23 12:21:25;;;;;;;4.28;0.90;;;29.20;67.20;;;;;;5069845;28;20489;-46
2022/08/23 12:24:11;;;;;;;8.38;1.33;;;29.20;67.10;;;;;;5069616;28;20113;-48
2022/08/23 12:27:07;;;;;;;4.68;1.23;;;29.20;67.10;;;;;;5068522;28;20490;-47
2022/08/23 12:29:59;;;;;;;3.10;1.10;;;29.20;65.30;;;;;;5068980;28;20605;-47
2022/08/23 12:32:40;;;;;;;9.82;1.42;;;29.20;65.40;;;;;;5065255;28;20044;-48
2022/08/23 12:35:29;;;;;;;3.35;1.10;;;29.30;65.50;;;;;;5072438;28;20058;-48
2022/08/23 12:38:00;;;;;;;3.75;1.55;;;29.40;64.80;;;;;;5068070;28;20029;-46
2022/08/23 12:40:42;;;;;;;3.55;1.25;;;29.40;64.50;;;;;;5053841;28;20076;-46
2022/08/23 12:43:16;;;;;;;8.02;0.98;;;29.40;64.40;;;;;;5057993;28;20093;-48
2022/08/23 12:45:48;;;;;;;8.43;1.42;;;29.40;65.40;;;;;;5072546;28;20036;-47
2022/08/23 12:48:19;;;;;;;6.15;0.85;;;29.40;63.50;;;;;;5073059;28;20520;-47
2022/08/23 12:50:53;;;;;;;3.05;1.20;;;29.40;63.60;;;;;;5071634;28;20452;-48
2022/08/23 12:53:28;;;;;;;127.32;7.68;;;29.30;62.60;;;;;;5073577;28;20486;-46
2022/08/23 12:56:04;;;;;;;2.30;0.98;;;29.30;63.80;;;;;;5072659;28;20037;-48
2022/08/23 12:58:32;;;;;;;3.50;1.02;;;29.30;63.80;;;;;;5069453;28;20037;-48
2022/08/23 13:01:02;;;;;;;4.22;0.98;;;29.20;63.80;;;;;;5072446;28;20087;-47
2022/08/23 13:03:37;;;;;;;3.25;1.00;;;29.20;63.60;;;;;;5072792;28;20562;-46
2022/08/23 13:06:11;;;;;;;6.18;1.38;;;29.10;63.10;;;;;;5072235;28;20062;-46
2022/08/23 13:08:55;;;;;;;3.45;1.00;;;29.10;63.90;;;;;;5068607;28;20383;-48
2022/08/23 13:11:24;;;;;;;4.13;1.05;;;29.00;62.60;;;;;;5062792;28;20072;-47
2022/08/23 13:13:50;;;;;;;6.10;1.52;;;29.00;63.50;;;;;;5067569;28;20086;-46
2022/08/23 13:16:42;;;;;;;4.93;1.27;;;28.90;62.10;;;;;;5071964;28;20036;-46